M I D A S
Marine Information and Data Acquisition System
Tripno 1906 of the Zeeleeuw from 2010-06-23 07:12:48 to 2010-06-23 14:53:10
Back to CruiseResearch ActivitiesStationsMapUnderway DataData graphs

EquipmentUnitsComments
TimeDGPSUTC
LatitudeDGPSDM.mWGS84
LongitudeDGPSDM.mWGS84
SpeedMeteo Stationm/sRelative wind speed
DirectionMeteo StationdegRelative wind direction
TemperatureMeteo Stationdeg CelciusAir temperature
PressureMeteo StationPaAtmospheric pressure
HumidityMeteo Station%Relative humidity
Missing or incorrect values are displayed as -999
Metereological data collected by the RV Zeeleeuw from 2010-06-23 06:39:38 to 2010-06-23 14:55:23
Time Latitude Longitude Speed Direction Temperature Pressure Humidity
2010-06-23 06:40 51°13.662 2°55.963 0.1 9 17.5 102240 41
2010-06-23 06:41 51°13.662 2°55.963 -999 360 17.5 102240 40
2010-06-23 06:42 51°13.662 2°55.962 -999 5 17.5 102240 41
2010-06-23 06:43 51°13.661 2°55.962 -999 5 17.6 102250 41
2010-06-23 06:44 51°13.662 2°55.962 -999 350 17.6 102240 41
2010-06-23 06:45 51°13.661 2°55.961 -999 5 17.7 102240 41
2010-06-23 06:46 51°13.661 2°55.961 0.1 6 17.8 102240 40
2010-06-23 06:47 51°13.661 2°55.961 1 8 17.8 102240 41
2010-06-23 06:48 51°13.661 2°55.961 0.2 15 17.8 102250 40
2010-06-23 06:49 51°13.661 2°55.961 1 360 17.8 102240 39
2010-06-23 06:50 51°13.662 2°55.962 0.2 3 17.8 102240 40
2010-06-23 06:51 51°13.662 2°55.962 -999 8 17.9 102250 41
2010-06-23 06:52 51°13.661 2°55.962 0.6 8 17.9 102250 40
2010-06-23 06:53 51°13.66 2°55.959 0.1 26 18 102250 40
2010-06-23 06:54 51°13.677 2°55.903 -999 36 18 102250 40
2010-06-23 06:55 51°13.694 2°55.803 2.3 38 18 102250 40
2010-06-23 06:56 51°13.697 2°55.728 1.8 42 18 102250 40
2010-06-23 06:57 51°13.719 2°55.742 0.1 25 18.1 102250 39
2010-06-23 06:58 51°13.719 2°55.744 1.5 29 18.1 102250 40
2010-06-23 06:59 51°13.752 2°55.713 0.8 262 18.2 102250 41
2010-06-23 07:00 51°13.821 2°55.647 -999 25 18.3 102250 40
2010-06-23 07:01 51°13.891 2°55.634 -999 329 18.4 102250 40
2010-06-23 07:02 51°13.944 2°55.639 0.1 251 18.5 102250 40
2010-06-23 07:03 51°13.968 2°55.629 -999 261 18.6 102250 40
2010-06-23 07:04 51°13.986 2°55.616 0.3 252 18.7 102250 39
2010-06-23 07:05 51°13.995 2°55.608 0.7 261 18.8 102250 38
2010-06-23 07:06 51°14 2°55.603 0.2 263 18.9 102250 38
2010-06-23 07:07 51°14.002 2°55.604 -999 269 18.9 102250 39
2010-06-23 07:08 51°14.028 2°55.569 2.5 22 18.9 102250 39
2010-06-23 07:09 51°14.103 2°55.458 1.9 26 19 102250 37
2010-06-23 07:10 51°14.206 2°55.353 2.6 315 19 102250 37
2010-06-23 07:11 51°14.324 2°55.241 4.6 24 18.9 102240 37
2010-06-23 07:12 51°14.482 2°55.077 5.8 23 18.8 102240 38
2010-06-23 07:13 51°14.648 2°54.904 4.9 28 18.6 102240 37
2010-06-23 07:14 51°14.816 2°54.728 5.3 316 18.5 102240 40
2010-06-23 07:15 51°14.993 2°54.531 5.7 315 18.3 102240 41
2010-06-23 07:16 51°15.169 2°54.323 5.6 318 18.1 102240 42
2010-06-23 07:17 51°15.345 2°54.111 5.8 316 18 102250 42
2010-06-23 07:18 51°15.517 2°53.89 5.6 317 17.8 102250 43
2010-06-23 07:19 51°15.687 2°53.669 5.8 318 17.7 102240 43
2010-06-23 07:20 51°15.854 2°53.452 6.2 320 17.6 102250 44
2010-06-23 07:21 51°16.027 2°53.233 5.8 317 17.6 102250 43
2010-06-23 07:22 51°16.215 2°53.057 5.1 318 17.5 102250 45
2010-06-23 07:23 51°16.414 2°52.927 5.6 317 17.4 102250 45
2010-06-23 07:24 51°16.617 2°52.784 5.3 29 17.2 102250 44
2010-06-23 07:25 51°16.813 2°52.635 5.3 319 17.1 102250 43
2010-06-23 07:26 51°17.008 2°52.484 5 21 17.1 102250 44
2010-06-23 07:27 51°17.203 2°52.332 4.8 316 17 102250 43
2010-06-23 07:28 51°17.399 2°52.179 5.1 318 16.9 102240 44
2010-06-23 07:29 51°17.594 2°52.028 4.9 24 16.8 102240 42
2010-06-23 07:30 51°17.788 2°51.878 5.4 28 16.7 102240 44
2010-06-23 07:31 51°17.983 2°51.73 5.6 315 16.7 102240 43
2010-06-23 07:32 51°18.177 2°51.578 5.5 316 16.7 102240 44
2010-06-23 07:33 51°18.363 2°51.402 5.6 317 16.7 102240 45
2010-06-23 07:34 51°18.544 2°51.211 6.1 315 16.6 102240 43
2010-06-23 07:35 51°18.725 2°51.02 5.3 26 16.6 102230 43
2010-06-23 07:36 51°18.908 2°50.831 5.8 28 16.5 102230 44
2010-06-23 07:37 51°19.092 2°50.641 5.8 26 16.5 102230 43
2010-06-23 07:38 51°19.274 2°50.461 5.6 316 16.4 102230 45
2010-06-23 07:39 51°19.459 2°50.27 5.7 315 16.4 102230 43
2010-06-23 07:40 51°19.631 2°50.059 6.6 315 16.3 102230 43
2010-06-23 07:41 51°19.803 2°49.845 5.8 24 16.3 102230 43
2010-06-23 07:42 51°19.977 2°49.633 6.2 316 16.3 102230 45
2010-06-23 07:43 51°20.152 2°49.419 5.7 315 16.3 102230 44
2010-06-23 07:44 51°20.326 2°49.206 6.7 316 16.3 102230 43
2010-06-23 07:45 51°20.508 2°48.988 6.3 24 16.3 102230 43
2010-06-23 07:46 51°20.688 2°48.772 5.8 23 16.2 102230 44
2010-06-23 07:47 51°20.865 2°48.564 6.3 27 16.2 102230 44
2010-06-23 07:48 51°21.046 2°48.355 6.5 30 16.1 102230 45
2010-06-23 07:49 51°21.219 2°48.154 6.4 24 16.1 102230 45
2010-06-23 07:50 51°21.397 2°47.95 5.8 24 16.1 102230 44
2010-06-23 07:51 51°21.579 2°47.761 5.7 28 16.1 102230 43
2010-06-23 07:52 51°21.769 2°47.587 5.6 28 16.1 102230 43
2010-06-23 07:53 51°21.958 2°47.412 5.8 25 16 102230 43
2010-06-23 07:54 51°22.146 2°47.233 6.5 26 16 102230 43
2010-06-23 07:55 51°22.321 2°47.027 6.5 24 16 102230 43
2010-06-23 07:56 51°22.495 2°46.816 6.5 28 16 102230 43
2010-06-23 07:57 51°22.669 2°46.607 5.9 28 16 102230 43
2010-06-23 07:58 51°22.839 2°46.39 6.4 26 15.9 102230 45
2010-06-23 07:59 51°23.006 2°46.154 6.8 23 15.9 102230 43
2010-06-23 08:00 51°23.171 2°45.922 6.3 25 15.9 102230 43
2010-06-23 08:01 51°23.336 2°45.688 7 27 15.9 102230 42
2010-06-23 08:02 51°23.502 2°45.454 5.8 23 15.9 102220 44
2010-06-23 08:03 51°23.668 2°45.227 6 23 15.9 102230 44
2010-06-23 08:04 51°23.835 2°45 5.5 27 15.9 102230 44
2010-06-23 08:05 51°24.002 2°44.773 5.7 21 15.9 102220 47
2010-06-23 08:06 51°24.166 2°44.548 5.8 20 15.9 102220 46
2010-06-23 08:07 51°24.369 2°44.492 1.2 326 15.8 102230 49
2010-06-23 08:08 51°24.477 2°44.801 3.8 349 15.8 102240 47
2010-06-23 08:09 51°24.532 2°45.164 4 349 15.8 102230 47
2010-06-23 08:10 51°24.603 2°45.521 4.1 349 15.7 102240 48
2010-06-23 08:11 51°24.688 2°45.868 3.7 345 15.6 102240 48
2010-06-23 08:12 51°24.799 2°46.198 2.8 348 15.6 102230 49
2010-06-23 08:13 51°24.909 2°46.531 2.9 346 15.6 102240 49
2010-06-23 08:14 51°25.017 2°46.866 2.7 349 15.6 102240 49
2010-06-23 08:15 51°25.124 2°47.203 3.2 349 15.6 102240 50
2010-06-23 08:16 51°25.231 2°47.539 2.8 350 15.5 102240 49
2010-06-23 08:17 51°25.348 2°47.865 2.7 347 15.6 102240 47
2010-06-23 08:18 51°25.473 2°48.181 2.6 348 15.6 102240 50
2010-06-23 08:19 51°25.599 2°48.498 2.5 347 15.6 102240 49
2010-06-23 08:20 51°25.726 2°48.823 2.5 348 15.7 102230 48
2010-06-23 08:21 51°25.851 2°49.145 3.3 346 15.7 102230 48
2010-06-23 08:22 51°25.975 2°49.468 2.7 347 15.7 102230 50
2010-06-23 08:23 51°26.1 2°49.791 2.6 349 15.7 102230 49
2010-06-23 08:24 51°26.225 2°50.114 3 349 15.7 102220 48
2010-06-23 08:25 51°26.348 2°50.438 3.2 347 15.7 102230 47
2010-06-23 08:26 51°26.473 2°50.762 3 348 15.7 102230 47
2010-06-23 08:27 51°26.597 2°51.087 2.6 349 15.7 102230 50
2010-06-23 08:28 51°26.721 2°51.409 2.8 346 15.7 102230 49
2010-06-23 08:29 51°26.845 2°51.732 2.6 350 15.7 102230 50
2010-06-23 08:30 51°26.966 2°52.05 3 349 15.6 102230 47
2010-06-23 08:31 51°27.089 2°52.373 2.7 347 15.6 102230 49
2010-06-23 08:32 51°27.213 2°52.694 2.6 350 15.7 102230 48
2010-06-23 08:33 51°27.335 2°53.016 2.4 345 15.7 102230 46
2010-06-23 08:34 51°27.459 2°53.334 2.3 346 15.7 102230 50
2010-06-23 08:35 51°27.583 2°53.652 2 345 15.7 102230 48
2010-06-23 08:36 51°27.706 2°53.972 2.3 345 15.8 102220 47
2010-06-23 08:37 51°27.828 2°54.292 2.2 348 15.8 102230 47
2010-06-23 08:38 51°27.952 2°54.611 2.2 346 15.8 102230 47
2010-06-23 08:39 51°28.076 2°54.931 2.6 346 15.9 102230 49
2010-06-23 08:40 51°28.201 2°55.25 2.8 344 15.9 102230 49
2010-06-23 08:41 51°28.326 2°55.572 2.3 345 15.9 102230 48
2010-06-23 08:42 51°28.453 2°55.894 2.1 343 15.9 102230 47
2010-06-23 08:43 51°28.58 2°56.219 2.4 342 16 102230 47
2010-06-23 08:44 51°28.706 2°56.545 2.3 342 16 102230 47
2010-06-23 08:45 51°28.833 2°56.873 2.6 338 16 102230 49
2010-06-23 08:46 51°28.961 2°57.2 2.7 338 16.1 102230 47
2010-06-23 08:47 51°29.084 2°57.531 2.6 341 16.2 102230 47
2010-06-23 08:48 51°29.208 2°57.864 3 338 16.2 102230 48
2010-06-23 08:49 51°29.333 2°58.197 2.1 338 16.2 102230 46
2010-06-23 08:50 51°29.459 2°58.535 3 336 16.2 102230 49
2010-06-23 08:51 51°29.583 2°58.869 3.1 336 16.3 102240 50
2010-06-23 08:52 51°29.707 2°59.202 2.4 336 16.3 102240 49
2010-06-23 08:53 51°29.832 2°59.535 2.8 335 16.3 102240 48
2010-06-23 08:54 51°29.958 2°59.87 3 338 16.3 102240 47
2010-06-23 08:55 51°30.084 3°0.208 2.6 338 16.3 102230 48
2010-06-23 08:56 51°30.21 3°0.548 2.8 339 16.3 102240 48
2010-06-23 08:57 51°30.327 3°0.864 1.1 342 16.3 102240 49
2010-06-23 08:58 51°30.406 3°1.076 -999 359 16.4 102240 49
2010-06-23 08:59 51°30.443 3°1.221 -999 34 16.4 102240 49
2010-06-23 09:00 51°30.458 3°1.328 -999 31 16.4 102240 49
2010-06-23 09:01 51°30.465 3°1.413 1.8 29 16.4 102240 50
2010-06-23 09:02 51°30.47 3°1.485 2.2 27 16.3 102240 50
2010-06-23 09:03 51°30.474 3°1.548 2 27 16.2 102230 50
2010-06-23 09:04 51°30.479 3°1.604 1.9 27 16.1 102230 48
2010-06-23 09:05 51°30.484 3°1.657 2.2 29 16.1 102230 47
2010-06-23 09:06 51°30.491 3°1.707 1.6 28 16.1 102230 51
2010-06-23 09:07 51°30.5 3°1.754 2.4 32 16 102230 49
2010-06-23 09:08 51°30.508 3°1.799 2.6 33 15.9 102230 49
2010-06-23 09:09 51°30.518 3°1.843 2.7 33 15.9 102230 48
2010-06-23 09:10 51°30.527 3°1.884 3 31 15.9 102230 48
2010-06-23 09:11 51°30.538 3°1.92 3 25 15.8 102230 50
2010-06-23 09:12 51°30.549 3°1.955 2.6 22 15.8 102230 50
2010-06-23 09:13 51°30.562 3°1.99 2.7 21 15.8 102230 50
2010-06-23 09:14 51°30.575 3°2.027 2.7 23 15.8 102230 48
2010-06-23 09:15 51°30.589 3°2.065 2.9 25 15.7 102230 50
2010-06-23 09:16 51°30.602 3°2.104 3 24 15.7 102220 50
2010-06-23 09:17 51°30.616 3°2.144 2.8 27 15.7 102220 48
2010-06-23 09:18 51°30.629 3°2.185 3.6 25 15.6 102220 49
2010-06-23 09:19 51°30.632 3°2.266 1.5 44 15.6 102220 50
2010-06-23 09:20 51°30.697 3°2.432 1.1 22 15.6 102220 49
2010-06-23 09:21 51°30.839 3°2.707 1.9 327 15.7 102220 47
2010-06-23 09:22 51°30.973 3°3.036 2.2 327 15.9 102220 50
2010-06-23 09:23 51°31.108 3°3.364 2.2 323 16 102220 50
2010-06-23 09:24 51°31.243 3°3.69 2.2 326 16.1 102220 49
2010-06-23 09:25 51°31.378 3°4.018 2.5 322 16.2 102220 48
2010-06-23 09:26 51°31.513 3°4.346 2 320 16.3 102220 49
2010-06-23 09:27 51°31.648 3°4.675 2.4 320 16.4 102220 50
2010-06-23 09:28 51°31.782 3°5.003 3.2 318 16.4 102220 49
2010-06-23 09:29 51°31.928 3°5.317 3.3 317 16.5 102220 48
2010-06-23 09:30 51°32.136 3°5.443 6 24 16.5 102210 49
2010-06-23 09:31 51°32.291 3°5.24 7.2 321 16.4 102200 49
2010-06-23 09:32 51°32.422 3°4.98 8.5 320 16.4 102200 47
2010-06-23 09:33 51°32.555 3°4.721 8.9 319 16.3 102200 47
2010-06-23 09:34 51°32.692 3°4.466 8.8 318 16.3 102200 46
2010-06-23 09:35 51°32.832 3°4.214 8.3 318 16.3 102200 46
2010-06-23 09:36 51°32.968 3°3.961 7.7 317 16.2 102200 47
2010-06-23 09:37 51°33.105 3°3.709 8.8 317 16.2 102200 46
2010-06-23 09:38 51°33.242 3°3.458 7.9 316 16.2 102200 46
2010-06-23 09:39 51°33.321 3°3.185 8.8 328 16.2 102200 47
2010-06-23 09:40 51°33.225 3°2.928 9.2 330 16.1 102200 47
2010-06-23 09:41 51°33.119 3°2.668 9 330 16 102200 48
2010-06-23 09:42 51°33.014 3°2.407 9.8 330 15.9 102190 47
2010-06-23 09:43 51°32.91 3°2.145 9.5 329 15.8 102200 47
2010-06-23 09:44 51°32.807 3°1.884 9.4 330 15.8 102200 49
2010-06-23 09:45 51°32.703 3°1.624 8.7 330 15.7 102200 47
2010-06-23 09:46 51°32.6 3°1.366 10.8 329 15.7 102200 49
2010-06-23 09:47 51°32.497 3°1.107 9.9 330 15.7 102200 49
2010-06-23 09:48 51°32.396 3°0.847 10.2 330 15.7 102190 49
2010-06-23 09:49 51°32.295 3°0.587 9.7 329 15.7 102190 49
2010-06-23 09:50 51°32.197 3°0.328 10.4 329 15.7 102200 48
2010-06-23 09:51 51°32.096 3°0.068 9.6 330 15.7 102200 50
2010-06-23 09:52 51°31.995 2°59.81 9.8 331 15.7 102190 48
2010-06-23 09:53 51°31.897 2°59.556 10.2 330 15.7 102190 50
2010-06-23 09:54 51°31.797 2°59.3 10.4 330 15.7 102190 48
2010-06-23 09:55 51°31.697 2°59.044 9.3 329 15.7 102200 48
2010-06-23 09:56 51°31.606 2°58.784 9.3 329 15.7 102200 49
2010-06-23 09:57 51°31.517 2°58.518 9.6 328 15.8 102190 49
2010-06-23 09:58 51°31.427 2°58.254 9.5 328 15.8 102190 48
2010-06-23 09:59 51°31.337 2°57.988 10.9 329 15.8 102200 50
2010-06-23 10:00 51°31.246 2°57.722 10.3 329 15.8 102200 50
2010-06-23 10:01 51°31.155 2°57.456 10.4 328 15.7 102200 50
2010-06-23 10:02 51°31.065 2°57.189 10.7 329 15.7 102200 50
2010-06-23 10:03 51°30.974 2°56.923 10.5 328 15.7 102200 49
2010-06-23 10:04 51°30.882 2°56.658 10.2 330 15.7 102200 49
2010-06-23 10:05 51°30.79 2°56.391 10 331 15.7 102200 49
2010-06-23 10:06 51°30.7 2°56.129 11.2 329 15.7 102200 50
2010-06-23 10:07 51°30.606 2°55.858 9.8 330 15.7 102200 50
2010-06-23 10:08 51°30.516 2°55.596 10.4 328 15.7 102210 49
2010-06-23 10:09 51°30.423 2°55.324 11.2 328 15.7 102200 50
2010-06-23 10:10 51°30.332 2°55.056 11.2 329 15.7 102210 49
2010-06-23 10:11 51°30.242 2°54.787 9.4 330 15.7 102200 49
2010-06-23 10:12 51°30.15 2°54.52 10.7 330 15.7 102200 50
2010-06-23 10:13 51°30.058 2°54.25 11.2 330 15.7 102200 50
2010-06-23 10:14 51°29.968 2°53.984 10.3 329 15.7 102200 50
2010-06-23 10:15 51°29.875 2°53.711 11.3 330 15.6 102200 50
2010-06-23 10:16 51°29.785 2°53.441 10.5 330 15.6 102200 51
2010-06-23 10:17 51°29.694 2°53.171 9.9 330 15.6 102210 50
2010-06-23 10:18 51°29.602 2°52.899 9.9 330 15.6 102210 49
2010-06-23 10:19 51°29.512 2°52.625 10.7 330 15.6 102210 50
2010-06-23 10:20 51°29.422 2°52.353 9.8 331 15.6 102210 49
2010-06-23 10:21 51°29.333 2°52.082 9.7 331 15.6 102210 50
2010-06-23 10:22 51°29.246 2°51.813 9.8 330 15.6 102210 50
2010-06-23 10:23 51°29.157 2°51.542 10.7 330 15.6 102210 49
2010-06-23 10:24 51°29.067 2°51.267 10.3 331 15.6 102210 50
2010-06-23 10:25 51°28.98 2°50.996 9.1 330 15.6 102210 49
2010-06-23 10:26 51°28.893 2°50.725 10.5 330 15.6 102220 49
2010-06-23 10:27 51°28.807 2°50.458 9 329 15.6 102210 49
2010-06-23 10:28 51°28.72 2°50.187 9.4 329 15.6 102210 49
2010-06-23 10:29 51°28.634 2°49.909 10.6 330 15.7 102210 51
2010-06-23 10:30 51°28.549 2°49.637 10.4 330 15.6 102210 49
2010-06-23 10:31 51°28.465 2°49.363 9.3 331 15.6 102210 49
2010-06-23 10:32 51°28.38 2°49.091 9.4 331 15.6 102210 49
2010-06-23 10:33 51°28.295 2°48.818 9.1 331 15.6 102210 49
2010-06-23 10:34 51°28.211 2°48.546 10.1 331 15.6 102220 49
2010-06-23 10:35 51°28.129 2°48.272 9.1 330 15.6 102210 50
2010-06-23 10:36 51°28.045 2°47.997 9.6 332 15.6 102210 49
2010-06-23 10:37 51°27.962 2°47.721 10 332 15.6 102220 49
2010-06-23 10:38 51°27.879 2°47.445 9.1 331 15.6 102210 50
2010-06-23 10:39 51°27.796 2°47.17 9.6 333 15.6 102210 48
2010-06-23 10:40 51°27.713 2°46.895 10 333 15.6 102210 48
2010-06-23 10:41 51°27.631 2°46.626 9.1 332 15.6 102210 49
2010-06-23 10:42 51°27.548 2°46.35 9.7 332 15.7 102210 50
2010-06-23 10:43 51°27.465 2°46.08 10 333 15.7 102210 48
2010-06-23 10:44 51°27.379 2°45.823 9.5 334 15.7 102210 48
2010-06-23 10:45 51°27.258 2°45.597 9 335 15.7 102210 48
2010-06-23 10:46 51°27.138 2°45.384 9.1 335 15.8 102210 48
2010-06-23 10:47 51°27.017 2°45.163 9.1 334 15.8 102210 49
2010-06-23 10:48 51°26.896 2°44.942 8.7 333 15.8 102210 48
2010-06-23 10:49 51°26.773 2°44.716 8.9 334 15.9 102220 48
2010-06-23 10:50 51°26.652 2°44.493 9.1 334 15.8 102210 48
2010-06-23 10:51 51°26.548 2°44.25 9.4 333 15.9 102210 49
2010-06-23 10:52 51°26.448 2°44.005 8.8 335 15.8 102220 49
2010-06-23 10:53 51°26.35 2°43.747 9.2 331 15.8 102210 49
2010-06-23 10:54 51°26.336 2°43.446 9.8 329 15.8 102210 49
2010-06-23 10:55 51°26.407 2°43.17 8.2 317 15.8 102220 49
2010-06-23 10:56 51°26.604 2°43.01 8.5 319 15.9 102220 48
2010-06-23 10:57 51°26.802 2°42.841 7.3 317 15.9 102220 49
2010-06-23 10:58 51°27 2°42.673 7.8 318 15.9 102220 50
2010-06-23 10:59 51°27.2 2°42.507 6.7 319 16 102220 49
2010-06-23 11:00 51°27.401 2°42.342 6.5 318 16 102220 48
2010-06-23 11:01 51°27.602 2°42.178 6.5 318 16 102220 48
2010-06-23 11:02 51°27.819 2°42.126 3.6 321 16.1 102220 49
2010-06-23 11:03 51°27.998 2°42.4 3.2 331 16.2 102230 47
2010-06-23 11:04 51°28.131 2°42.746 3.2 334 16.1 102230 47
2010-06-23 11:05 51°28.238 2°43.113 3.1 333 16.1 102230 50
2010-06-23 11:06 51°28.344 2°43.481 2.7 335 16.1 102230 48
2010-06-23 11:07 51°28.45 2°43.847 2.8 334 16.1 102230 47
2010-06-23 11:08 51°28.555 2°44.214 2.5 332 16.1 102230 50
2010-06-23 11:09 51°28.656 2°44.575 2.8 332 16.1 102230 50
2010-06-23 11:10 51°28.761 2°44.942 3 331 16.2 102230 47
2010-06-23 11:11 51°28.867 2°45.316 2.5 330 16.2 102230 47
2010-06-23 11:12 51°28.971 2°45.685 2.4 331 16.2 102220 47
2010-06-23 11:13 51°29.074 2°46.056 2.4 331 16.2 102230 47
2010-06-23 11:14 51°29.188 2°46.417 2.7 324 16.3 102220 50
2010-06-23 11:15 51°29.345 2°46.738 3.2 322 16.3 102230 50
2010-06-23 11:16 51°29.481 2°47.077 2.4 329 16.3 102230 47
2010-06-23 11:17 51°29.584 2°47.447 2.2 329 16.4 102220 48
2010-06-23 11:18 51°29.689 2°47.82 2.3 328 16.4 102220 47
2010-06-23 11:19 51°29.795 2°48.194 3 326 16.4 102230 47
2010-06-23 11:20 51°29.903 2°48.566 2.5 324 16.4 102220 49
2010-06-23 11:21 51°29.985 2°48.947 1.9 330 16.5 102220 49
2010-06-23 11:22 51°30.049 2°49.329 2.2 330 16.5 102220 47
2010-06-23 11:23 51°30.119 2°49.724 2.2 330 16.5 102220 49
2010-06-23 11:24 51°30.194 2°50.099 2.5 320 16.5 102220 46
2010-06-23 11:25 51°30.305 2°50.467 2.3 325 16.6 102220 47
2010-06-23 11:26 51°30.411 2°50.829 2.2 325 16.6 102220 46
2010-06-23 11:27 51°30.536 2°51.172 2.2 325 16.7 102210 47
2010-06-23 11:28 51°30.681 2°51.497 2.9 24 16.6 102210 47
2010-06-23 11:29 51°30.822 2°51.823 2.7 318 16.7 102210 47
2010-06-23 11:30 51°30.963 2°52.147 2.6 318 16.7 102210 47
2010-06-23 11:31 51°31.102 2°52.472 2.9 317 16.7 102210 46
2010-06-23 11:32 51°31.242 2°52.797 2.7 316 16.7 102210 49
2010-06-23 11:33 51°31.378 2°53.115 2.8 321 16.7 102210 46
2010-06-23 11:34 51°31.521 2°53.444 2.8 317 16.7 102210 47
2010-06-23 11:35 51°31.654 2°53.773 2.2 322 16.7 102210 47
2010-06-23 11:36 51°31.774 2°54.117 2.1 320 16.7 102210 49
2010-06-23 11:37 51°31.893 2°54.453 2.6 322 16.7 102210 49
2010-06-23 11:38 51°32.016 2°54.8 2.6 321 16.6 102210 50
2010-06-23 11:39 51°32.138 2°55.139 2.7 320 16.6 102200 47
2010-06-23 11:40 51°32.258 2°55.474 2.5 324 16.6 102210 47
2010-06-23 11:41 51°32.386 2°55.816 3 323 16.6 102210 47
2010-06-23 11:42 51°32.534 2°56.128 3 321 16.6 102210 48
2010-06-23 11:43 51°32.694 2°56.419 2.6 30 16.5 102200 49
2010-06-23 11:44 51°32.845 2°56.736 2.1 25 16.5 102200 49
2010-06-23 11:45 51°32.965 2°57.077 1.6 318 16.4 102210 47
2010-06-23 11:46 51°33.085 2°57.418 2.4 318 16.5 102210 49
2010-06-23 11:47 51°33.207 2°57.757 3.1 318 16.5 102200 47
2010-06-23 11:48 51°33.326 2°58.091 2.2 316 16.5 102200 49
2010-06-23 11:49 51°33.45 2°58.43 2.5 317 16.5 102210 46
2010-06-23 11:50 51°33.573 2°58.767 2.5 317 16.6 102210 46
2010-06-23 11:51 51°33.697 2°59.11 2 315 16.6 102200 49
2010-06-23 11:52 51°33.818 2°59.443 2.2 27 16.6 102200 48
2010-06-23 11:53 51°33.944 2°59.784 2.2 21 16.5 102200 46
2010-06-23 11:54 51°34.065 3°0.113 2.3 315 16.6 102200 49
2010-06-23 11:55 51°34.191 3°0.452 2.3 317 16.6 102200 49
2010-06-23 11:56 51°34.313 3°0.78 3 316 16.6 102200 49
2010-06-23 11:57 51°34.44 3°1.117 2.4 30 16.7 102200 46
2010-06-23 11:58 51°34.563 3°1.445 2.6 23 16.6 102200 46
2010-06-23 11:59 51°34.752 3°1.648 6.2 23 16.5 102190 46
2010-06-23 12:00 51°34.99 3°1.632 7.4 317 16.4 102180 48
2010-06-23 12:01 51°35.142 3°1.37 9.1 323 16.3 102180 47
2010-06-23 12:02 51°35.235 3°1.049 10.8 326 16.2 102180 47
2010-06-23 12:03 51°35.314 3°0.73 8.5 326 16.1 102180 47
2010-06-23 12:04 51°35.412 3°0.41 10 324 16 102170 47
2010-06-23 12:05 51°35.513 3°0.105 9.1 323 16 102180 49
2010-06-23 12:06 51°35.62 2°59.789 8.4 323 16 102180 48
2010-06-23 12:07 51°35.722 2°59.486 8.4 324 16 102180 47
2010-06-23 12:08 51°35.826 2°59.172 8.5 325 16 102180 49
2010-06-23 12:09 51°35.791 2°58.878 9.4 331 16 102180 49
2010-06-23 12:10 51°35.697 2°58.586 9.2 332 15.9 102180 48
2010-06-23 12:11 51°35.602 2°58.298 9.2 334 15.9 102180 49
2010-06-23 12:12 51°35.508 2°58.015 9 333 15.8 102180 49
2010-06-23 12:13 51°35.412 2°57.721 9.4 333 15.8 102180 48
2010-06-23 12:14 51°35.319 2°57.435 9.5 333 15.8 102180 48
2010-06-23 12:15 51°35.22 2°57.155 10.7 334 15.8 102170 49
2010-06-23 12:16 51°35.119 2°56.888 10.9 334 15.8 102170 48
2010-06-23 12:17 51°35.015 2°56.611 10.9 333 15.8 102180 48
2010-06-23 12:18 51°34.915 2°56.344 10.6 334 15.8 102170 49
2010-06-23 12:19 51°34.811 2°56.066 9.6 334 15.8 102180 48
2010-06-23 12:20 51°34.707 2°55.792 9.5 332 15.8 102180 48
2010-06-23 12:21 51°34.605 2°55.517 9.2 333 15.8 102180 48
2010-06-23 12:22 51°34.502 2°55.243 10.2 333 15.8 102180 48
2010-06-23 12:23 51°34.399 2°54.967 10.5 333 15.8 102180 49
2010-06-23 12:24 51°34.296 2°54.692 9.2 334 15.7 102180 49
2010-06-23 12:25 51°34.193 2°54.42 9.2 333 15.7 102180 48
2010-06-23 12:26 51°34.088 2°54.138 9 334 15.7 102180 48
2010-06-23 12:27 51°33.984 2°53.864 9.5 333 15.7 102180 48
2010-06-23 12:28 51°33.881 2°53.585 9.5 335 15.8 102180 49
2010-06-23 12:29 51°33.779 2°53.306 9.7 335 15.8 102180 48
2010-06-23 12:30 51°33.684 2°53.019 10.7 334 15.8 102180 49
2010-06-23 12:31 51°33.575 2°52.739 10.4 336 15.8 102180 49
2010-06-23 12:32 51°33.464 2°52.471 9.6 336 15.8 102180 48
2010-06-23 12:33 51°33.349 2°52.192 9.8 337 15.8 102180 48
2010-06-23 12:34 51°33.234 2°51.917 11.4 338 15.7 102180 48
2010-06-23 12:35 51°33.112 2°51.653 10.2 338 15.7 102180 48
2010-06-23 12:36 51°33.003 2°51.39 9.7 337 15.7 102180 48
2010-06-23 12:37 51°32.895 2°51.114 9.6 336 15.7 102180 49
2010-06-23 12:38 51°32.802 2°50.839 9.8 337 15.7 102190 48
2010-06-23 12:39 51°32.706 2°50.56 10.3 336 15.7 102180 48
2010-06-23 12:40 51°32.607 2°50.276 10.5 336 15.7 102190 48
2010-06-23 12:41 51°32.512 2°50.001 9.2 335 15.7 102190 49
2010-06-23 12:42 51°32.413 2°49.716 9.2 336 15.7 102190 48
2010-06-23 12:43 51°32.317 2°49.442 10.3 336 15.7 102180 48
2010-06-23 12:44 51°32.218 2°49.159 9.5 337 15.7 102180 49
2010-06-23 12:45 51°32.123 2°48.885 8.9 335 15.7 102180 49
2010-06-23 12:46 51°32.024 2°48.603 10.1 335 15.7 102190 48
2010-06-23 12:47 51°31.93 2°48.329 9 335 15.7 102180 49
2010-06-23 12:48 51°31.831 2°48.045 9.2 337 15.7 102180 49
2010-06-23 12:49 51°31.737 2°47.77 9.5 336 15.7 102190 48
2010-06-23 12:50 51°31.638 2°47.483 9.4 336 15.6 102190 49
2010-06-23 12:51 51°31.541 2°47.2 10.3 336 15.6 102190 48
2010-06-23 12:52 51°31.446 2°46.921 10.3 336 15.6 102180 50
2010-06-23 12:53 51°31.349 2°46.635 9.6 337 15.6 102190 49
2010-06-23 12:54 51°31.251 2°46.348 10.6 336 15.6 102180 49
2010-06-23 12:55 51°31.153 2°46.06 10.3 337 15.6 102190 50
2010-06-23 12:56 51°31.055 2°45.771 10.9 336 15.6 102190 49
2010-06-23 12:57 51°30.953 2°45.476 11 336 15.6 102180 48
2010-06-23 12:58 51°30.852 2°45.194 9.1 336 15.6 102180 48
2010-06-23 12:59 51°30.749 2°44.914 9.2 336 15.7 102180 48
2010-06-23 13:00 51°30.649 2°44.625 10.4 336 15.7 102180 49
2010-06-23 13:01 51°30.553 2°44.347 10.1 336 15.7 102180 49
2010-06-23 13:02 51°30.451 2°44.071 9.8 336 15.7 102180 49
2010-06-23 13:03 51°30.346 2°43.792 8.6 337 15.7 102180 47
2010-06-23 13:04 51°30.242 2°43.516 8.6 335 15.7 102180 48
2010-06-23 13:05 51°30.138 2°43.247 8.7 335 15.7 102190 49
2010-06-23 13:06 51°30.031 2°42.966 9.5 336 15.7 102180 49
2010-06-23 13:07 51°29.929 2°42.692 9.4 336 15.7 102180 48
2010-06-23 13:08 51°29.825 2°42.413 9.1 336 15.7 102180 48
2010-06-23 13:09 51°29.72 2°42.133 8.5 336 15.7 102180 48
2010-06-23 13:10 51°29.615 2°41.846 10 336 15.6 102180 49
2010-06-23 13:11 51°29.514 2°41.569 8.7 336 15.6 102180 48
2010-06-23 13:12 51°29.416 2°41.28 9.8 336 15.6 102180 48
2010-06-23 13:13 51°29.316 2°40.987 8.8 336 15.6 102180 48
2010-06-23 13:14 51°29.215 2°40.686 8.6 -999 15.6 102180 48
2010-06-23 13:15 51°29.118 2°40.395 9.8 278 15.6 102180 49
2010-06-23 13:16 51°29.019 2°40.106 10.1 -999 15.6 102180 48
2010-06-23 13:17 51°28.919 2°39.816 9.3 283 15.6 102180 47
2010-06-23 13:18 51°28.82 2°39.521 8.6 -999 15.6 102170 49
2010-06-23 13:19 51°28.718 2°39.231 8.6 284 15.7 102180 49
2010-06-23 13:20 51°28.614 2°38.954 9.7 -999 15.7 102180 48
2010-06-23 13:21 51°28.477 2°38.742 7 278 15.7 102180 47
2010-06-23 13:22 51°28.29 2°38.895 5 -999 15.6 102180 49
2010-06-23 13:23 51°28.116 2°39.129 4.9 278 15.6 102180 49
2010-06-23 13:24 51°27.942 2°39.365 5 -999 15.6 102190 47
2010-06-23 13:25 51°27.756 2°39.57 5.5 277 15.6 102180 47
2010-06-23 13:26 51°27.56 2°39.746 5.7 282 15.6 102180 49
2010-06-23 13:27 51°27.363 2°39.925 5.5 281 15.6 102180 47
2010-06-23 13:28 51°27.168 2°40.105 5.4 282 15.6 102180 47
2010-06-23 13:29 51°26.971 2°40.288 5.7 284 15.6 102190 49
2010-06-23 13:30 51°26.773 2°40.468 5.1 347 15.6 102180 47
2010-06-23 13:31 51°26.577 2°40.647 5.5 283 15.5 102180 49
2010-06-23 13:32 51°26.382 2°40.827 5.6 347 15.5 102180 47
2010-06-23 13:33 51°26.184 2°41.007 5.2 278 15.5 102180 49
2010-06-23 13:34 51°25.987 2°41.189 5.6 283 15.5 102180 48
2010-06-23 13:35 51°25.79 2°41.364 4.9 276 15.5 102180 47
2010-06-23 13:36 51°25.594 2°41.543 5.2 350 15.5 102190 47
2010-06-23 13:37 51°25.398 2°41.717 5.9 283 15.5 102190 49
2010-06-23 13:38 51°25.203 2°41.894 5 348 15.6 102190 48
2010-06-23 13:39 51°25.006 2°42.072 5.4 279 15.6 102190 46
2010-06-23 13:40 51°24.809 2°42.247 5.5 277 15.7 102190 49
2010-06-23 13:41 51°24.615 2°42.431 5 278 15.7 102190 48
2010-06-23 13:42 51°24.446 2°42.675 4.2 282 15.7 102190 49
2010-06-23 13:43 51°24.284 2°42.935 4.5 285 15.8 102190 49
2010-06-23 13:44 51°24.129 2°43.204 4.1 283 16 102190 49
2010-06-23 13:45 51°23.977 2°43.48 4.2 284 16 102190 46
2010-06-23 13:46 51°23.825 2°43.748 3.9 278 16 102190 46
2010-06-23 13:47 51°23.672 2°44.014 4.2 277 16 102190 46
2010-06-23 13:48 51°23.507 2°44.26 4.1 283 16.1 102180 49
2010-06-23 13:49 51°23.336 2°44.499 4.2 283 16.2 102190 48
2010-06-23 13:50 51°23.156 2°44.723 4 278 16.1 102180 49
2010-06-23 13:51 51°22.972 2°44.938 4.4 283 16.2 102190 49
2010-06-23 13:52 51°22.776 2°45.123 4.7 278 16.3 102190 47
2010-06-23 13:53 51°22.569 2°45.273 5.3 278 16.2 102180 46
2010-06-23 13:54 51°22.346 2°45.34 5.8 278 16.2 102180 46
2010-06-23 13:55 51°22.125 2°45.4 5.6 279 16.3 102180 46
2010-06-23 13:56 51°21.903 2°45.465 5 282 16.3 102180 47
2010-06-23 13:57 51°21.683 2°45.529 5.3 284 16.4 102180 46
2010-06-23 13:58 51°21.464 2°45.592 5.2 285 16.3 102170 48
2010-06-23 13:59 51°21.245 2°45.656 5.3 279 16.3 102180 47
2010-06-23 14:00 51°21.024 2°45.718 5 282 16.3 102180 46
2010-06-23 14:01 51°20.807 2°45.807 4.8 276 16.3 102170 48
2010-06-23 14:02 51°20.593 2°45.903 4.3 279 16.2 102180 46
2010-06-23 14:03 51°20.405 2°46.082 3.8 282 16.2 102180 49
2010-06-23 14:04 51°20.23 2°46.294 3.9 283 16.3 102180 49
2010-06-23 14:05 51°20.05 2°46.496 4.2 -999 16.4 102180 49
2010-06-23 14:06 51°19.857 2°46.674 3.9 -999 16.4 102180 46
2010-06-23 14:07 51°19.663 2°46.851 3.8 276 16.5 102180 48
2010-06-23 14:08 51°19.468 2°47.028 4.1 -999 16.5 102180 47
2010-06-23 14:09 51°19.273 2°47.206 3.8 279 16.6 102180 46
2010-06-23 14:10 51°19.077 2°47.381 4 282 16.5 102180 49
2010-06-23 14:11 51°18.886 2°47.567 3.1 283 16.5 102180 47
2010-06-23 14:12 51°18.766 2°47.852 2.3 284 16.6 102180 47
2010-06-23 14:13 51°18.706 2°48.186 2.9 276 16.6 102180 46
2010-06-23 14:14 51°18.625 2°48.507 2.9 280 16.7 102180 49
2010-06-23 14:15 51°18.508 2°48.795 2.5 278 16.8 102180 48
2010-06-23 14:17 51°18.327 2°49.288 2.3 283 16.9 102190 49
2010-06-23 14:18 51°18.152 2°49.768 2.6 331 16.9 102180 46
2010-06-23 14:19 51°18.042 2°50.073 2.7 330 16.9 102180 49
2010-06-23 14:20 51°17.935 2°50.377 2.5 330 16.9 102170 47
2010-06-23 14:21 51°17.833 2°50.684 2.7 328 17 102180 49
2010-06-23 14:22 51°17.729 2°50.989 2.7 328 17 102180 46
2010-06-23 14:23 51°17.626 2°51.291 3.2 329 17 102170 49
2010-06-23 14:24 51°17.523 2°51.594 2.8 327 17.1 102170 46
2010-06-23 14:25 51°17.425 2°51.905 3 326 17.1 102170 49
2010-06-23 14:26 51°17.283 2°52.17 3.1 335 17.1 102170 46
2010-06-23 14:27 51°17.098 2°52.358 3 338 17.1 102170 46
2010-06-23 14:28 51°16.91 2°52.536 3.3 338 17.2 102170 46
2010-06-23 14:29 51°16.72 2°52.716 3.1 340 17.2 102170 47
2010-06-23 14:30 51°16.527 2°52.897 3 338 17.3 102170 48
2010-06-23 14:31 51°16.336 2°53.083 3 340 17.3 102170 48
2010-06-23 14:32 51°16.141 2°53.257 3.1 340 17.3 102170 46
2010-06-23 14:33 51°15.942 2°53.415 3.3 342 17.4 102170 46
2010-06-23 14:34 51°15.743 2°53.579 3 340 17.4 102170 46
2010-06-23 14:36 51°15.553 2°53.773 2.9 336 17.3 102160 46
2010-06-23 14:37 51°15.388 2°53.967 2.9 336 17.4 102170 46
2010-06-23 14:37 51°15.233 2°54.148 2.8 334 17.4 102170 49
2010-06-23 14:38 51°15.075 2°54.335 3 335 17.5 102170 46
2010-06-23 14:39 51°14.914 2°54.522 2.8 336 17.5 102160 49
2010-06-23 14:40 51°14.749 2°54.707 2.9 340 17.6 102160 46
2010-06-23 14:41 51°14.593 2°54.872 2.2 342 17.6 102160 46
2010-06-23 14:42 51°14.48 2°54.996 -999 341 17.6 102160 46
2010-06-23 14:43 51°14.382 2°55.138 -999 339 17.6 102160 47
2010-06-23 14:44 51°14.272 2°55.277 -999 346 17.7 102160 47
2010-06-23 14:46 51°14.175 2°55.375 -999 -999 17.7 102160 47
2010-06-23 14:47 51°14.088 2°55.443 -999 43 17.6 102160 47
2010-06-23 14:48 51°14.009 2°55.498 -999 31 17.7 102160 48
2010-06-23 14:48 51°13.933 2°55.548 -999 37 17.8 102150 48
2010-06-23 14:49 51°13.872 2°55.594 -999 25 18 102150 47
2010-06-23 14:51 51°13.824 2°55.634 -999 26 18.1 102150 48
2010-06-23 14:52 51°13.778 2°55.685 -999 25 18.1 102150 46
2010-06-23 14:53 51°13.722 2°55.784 0.3 258 18.1 102160 46
2010-06-23 14:54 51°13.679 2°55.888 -999 245 18.3 102160 47
2010-06-23 14:55 51°13.662 2°55.955 2.6 25 18.5 102150 47